Time;durP1;ratioP1;P1;durP2;ratioP2;P2;SDS_P1;SDS_P2;PMS_P1;PMS_P2;Temp;Humidity;BMP_temperature;BMP_pressure;BME280_temperature;BME280_humidity;BME280_pressure;Samples;Min_cycle;Max_cycle;Signal;HPM_P1;HPM_P2
2022/08/17 00:01:24;;;;;;;13.55;8.90;;;;;;;21.56;61.14;99933.00;5029288;28;20056;-53
2022/08/17 00:03:50;;;;;;;12.50;8.88;;;;;;;21.36;61.17;99905.38;5029742;28;20072;-55
2022/08/17 00:06:20;;;;;;;11.38;8.38;;;;;;;21.49;61.42;99929.13;5031711;28;20202;-56
2022/08/17 00:08:54;;;;;;;10.30;8.90;;;;;;;21.45;61.58;99938.25;5031777;28;20095;-55
2022/08/17 00:11:28;;;;;;;12.48;8.32;;;;;;;21.41;61.81;99934.97;5031566;28;20060;-54
2022/08/17 00:13:58;;;;;;;11.82;9.00;;;;;;;21.38;61.84;99934.38;5030744;28;20069;-55
2022/08/17 00:16:30;;;;;;;13.77;8.57;;;;;;;21.33;62.06;99932.06;5028329;28;20104;-53
2022/08/17 00:19:00;;;;;;;14.00;9.48;;;;;;;21.28;62.20;99936.84;5014657;28;20037;-53
2022/08/17 00:21:26;;;;;;;10.80;8.88;;;;;;;21.24;62.34;99934.56;5032117;28;20049;-54
2022/08/17 00:23:53;;;;;;;12.00;8.65;;;;;;;21.21;62.56;99921.53;5027143;28;20048;-57
2022/08/17 00:26:19;;;;;;;12.38;8.35;;;;;;;21.20;62.70;99926.00;5032490;28;20042;-55
2022/08/17 00:28:46;;;;;;;14.98;9.43;;;;;;;21.18;62.92;99933.22;5032077;28;20139;-51
2022/08/17 00:31:12;;;;;;;14.00;8.93;;;;;;;21.15;63.05;99938.72;5031906;28;20049;-55
2022/08/17 00:33:41;;;;;;;16.42;8.63;;;;;;;21.11;63.19;99929.28;5013942;28;20048;-56
2022/08/17 00:36:07;;;;;;;13.48;8.70;;;;;;;21.08;63.50;99932.16;5031970;28;20079;-55
2022/08/17 00:38:33;;;;;;;15.13;9.95;;;;;;;21.05;63.53;99935.03;5014616;28;20529;-55
2022/08/17 00:41:06;;;;;;;11.23;8.23;;;;;;;21.03;63.89;99929.03;5028062;28;20142;-54
2022/08/17 00:43:34;;;;;;;14.20;8.40;;;;;;;20.99;63.76;99922.25;5011577;28;20451;-56
2022/08/17 00:46:03;;;;;;;13.07;9.15;;;;;;;20.98;63.91;99929.38;4995353;28;20054;-55
2022/08/17 00:48:30;;;;;;;12.73;9.07;;;;;;;20.95;64.16;99932.22;5013511;28;20041;-55
2022/08/17 00:51:02;;;;;;;13.90;8.98;;;;;;;20.92;64.38;99928.97;5030545;28;20492;-53
2022/08/17 00:53:29;;;;;;;14.10;8.38;;;;;;;20.87;64.44;99931.09;5031637;28;20048;-54
2022/08/17 00:56:00;;;;;;;17.02;9.77;;;;;;;20.87;64.68;99931.09;5030743;28;20552;-54
2022/08/17 00:58:26;;;;;;;13.43;8.85;;;;;;;20.85;64.74;99928.56;5025868;28;20037;-54
2022/08/17 01:00:52;;;;;;;13.43;9.30;;;;;;;20.82;64.88;99922.66;5030304;28;20467;-53
2022/08/17 01:03:24;;;;;;;13.55;8.95;;;;;;;20.82;65.12;99927.94;5022010;28;20038;-53
2022/08/17 01:05:53;;;;;;;13.60;9.55;;;;;;;20.81;65.12;99919.16;5013982;28;20425;-52
2022/08/17 01:08:22;;;;;;;14.15;9.52;;;;;;;20.77;65.27;99906.28;5030205;28;20099;-54
2022/08/17 01:10:51;;;;;;;12.18;8.93;;;;;;;20.78;65.32;99910.63;5031851;28;20043;-56
2022/08/17 01:13:17;;;;;;;11.38;9.07;;;;;;;20.79;65.27;99914.94;5014174;28;20429;-55
2022/08/17 01:16:07;;;;;;;12.50;9.10;;;;;;;20.79;65.62;99920.22;5029857;28;20046;-55
2022/08/17 01:18:33;;;;;;;18.48;9.70;;;;;;;20.63;65.52;99896.72;5016563;28;20541;-55
2022/08/17 01:21:18;;;;;;;14.95;10.10;;;;;;;20.74;65.78;99917.91;5030587;28;20543;-53
2022/08/17 01:23:43;;;;;;;12.70;9.00;;;;;;;20.70;65.75;99905.88;5025918;28;20048;-56
2022/08/17 01:26:09;;;;;;;13.82;10.25;;;;;;;20.73;65.57;99914.44;5031614;28;20045;-56
2022/08/17 01:28:37;;;;;;;20.27;10.20;;;;;;;20.70;65.72;99914.66;5013531;28;20057;-57
2022/08/17 01:31:05;;;;;;;16.02;9.20;;;;;;;20.67;65.82;99914.06;5011246;28;20419;-55
2022/08/17 01:33:31;;;;;;;17.75;10.57;;;;;;;20.35;65.84;99865.34;5013402;28;20034;-55
2022/08/17 01:35:59;;;;;;;15.65;9.05;;;;;;;20.63;65.92;99909.91;5030755;28;20060;-56
2022/08/17 01:38:30;;;;;;;20.45;9.82;;;;;;;20.61;65.99;99912.69;5027762;28;20061;-55
2022/08/17 01:41:00;;;;;;;14.02;9.35;;;;;;;20.58;66.14;99914.69;5031328;28;20067;-52
2022/08/17 01:43:43;;;;;;;11.73;9.43;;;;;;;20.41;66.19;99884.19;5029472;28;20513;-54
2022/08/17 01:46:14;;;;;;;14.07;9.43;;;;;;;20.57;66.35;99911.19;5031216;28;20132;-53
2022/08/17 01:48:41;;;;;;;16.13;9.68;;;;;;;20.58;66.11;99912.06;5015122;28;20041;-54
2022/08/17 01:51:07;;;;;;;13.63;9.15;;;;;;;20.60;66.08;99912.78;5029998;28;20094;-54
2022/08/17 01:53:41;;;;;;;11.40;8.65;;;;;;;20.44;66.22;99891.06;5030486;28;20464;-54
2022/08/17 01:56:12;;;;;;;15.85;9.43;;;;;;;20.55;66.27;99913.13;5030530;28;20056;-53
2022/08/17 01:58:40;;;;;;;15.18;9.13;;;;;;;20.54;66.28;99913.22;5012201;28;20040;-55
2022/08/17 02:01:09;;;;;;;13.18;9.23;;;;;;;20.60;66.15;99915.44;5026094;28;20472;-54
2022/08/17 02:03:36;;;;;;;12.77;9.65;;;;;;;20.59;66.07;99909.31;5016095;28;20037;-54
2022/08/17 02:06:04;;;;;;;13.20;8.95;;;;;;;20.60;65.89;99916.28;5027056;28;20041;-55
2022/08/17 02:08:34;;;;;;;14.35;9.23;;;;;;;20.60;65.89;99913.66;5030234;28;20037;-56
2022/08/17 02:11:06;;;;;;;12.18;8.00;;;;;;;20.64;65.81;99912.47;5029059;28;20041;-57
2022/08/17 02:13:33;;;;;;;12.55;8.52;;;;;;;20.69;65.66;99912.13;5029404;28;20407;-56
2022/08/17 02:16:00;;;;;;;10.75;8.40;;;;;;;20.69;65.53;99904.19;5030513;28;20131;-54
2022/08/17 02:18:27;;;;;;;13.95;8.52;;;;;;;20.74;65.50;99907.34;5020168;28;20140;-54
2022/08/17 02:20:53;;;;;;;13.32;8.85;;;;;;;20.71;65.40;99903.16;5024169;28;20037;-55
2022/08/17 02:23:22;;;;;;;11.15;8.80;;;;;;;20.57;65.38;99874.22;5018264;28;20129;-56
2022/08/17 02:25:48;;;;;;;;;;;;;;;20.70;65.25;99908.53;5011385;28;20046;-53
2022/08/17 02:28:15;;;;;;;13.25;8.82;;;;;;;20.67;65.40;99906.94;5019204;28;20373;-54
2022/08/17 02:30:42;;;;;;;14.63;8.50;;;;;;;20.61;65.49;99901.28;5030090;28;20505;-55
2022/08/17 02:33:08;;;;;;;13.85;9.05;;;;;;;20.64;65.42;99899.25;5021024;28;20068;-55
2022/08/17 02:35:35;;;;;;;10.43;8.88;;;;;;;20.67;65.35;99903.47;5018104;28;20501;-55
2022/08/17 02:38:03;;;;;;;13.57;7.85;;;;;;;20.68;65.18;99892.78;5029569;28;20583;-55
2022/08/17 02:40:30;;;;;;;12.43;9.63;;;;;;;20.71;65.21;99902.31;5030208;28;20091;-57
2022/08/17 02:42:55;;;;;;;13.65;7.90;;;;;;;20.66;65.00;99894.72;5029658;28;20049;-55
2022/08/17 02:45:23;;;;;;;15.18;8.38;;;;;;;20.75;64.92;99903.75;5030324;28;20479;-55
2022/08/17 02:47:49;;;;;;;11.63;8.00;;;;;;;20.73;64.97;99903.00;5027535;28;20037;-54
2022/08/17 02:50:17;;;;;;;11.90;7.95;;;;;;;20.76;64.98;99908.09;5024542;28;20048;-55
2022/08/17 02:52:46;;;;;;;11.25;7.82;;;;;;;20.78;64.91;99905.34;5028249;28;20163;-52
2022/08/17 02:55:19;;;;;;;12.45;8.05;;;;;;;20.77;64.92;99908.94;5030208;28;20063;-55
2022/08/17 02:57:45;;;;;;;12.55;8.13;;;;;;;20.77;64.90;99908.94;5028495;28;20048;-56
2022/08/17 03:00:16;;;;;;;11.70;7.95;;;;;;;20.75;64.77;99908.19;5010580;28;20128;-56
2022/08/17 03:02:43;;;;;;;11.10;7.93;;;;;;;20.69;64.92;99912.97;5023853;28;20045;-55
2022/08/17 03:05:11;;;;;;;8.40;6.95;;;;;;;20.56;64.99;99884.91;5025125;28;20103;-54
2022/08/17 03:07:37;;;;;;;13.95;7.93;;;;;;;20.73;64.87;99910.94;5028044;28;20038;-52
2022/08/17 03:10:05;;;;;;;13.98;8.77;;;;;;;20.73;64.83;99911.78;5029658;28;20045;-54
2022/08/17 03:12:33;;;;;;;11.65;8.00;;;;;;;20.70;64.80;99905.88;5029737;28;20041;-55
2022/08/17 03:15:08;;;;;;;10.85;8.45;;;;;;;20.72;64.64;99906.63;5029894;28;20041;-53
2022/08/17 03:17:34;;;;;;;15.32;7.90;;;;;;;20.70;64.79;99904.09;5029176;28;20108;-56
2022/08/17 03:19:59;;;;;;;14.63;8.18;;;;;;;20.76;64.84;99905.44;5019715;28;20494;-55
2022/08/17 03:22:29;;;;;;;12.32;6.90;;;;;;;20.74;64.82;99915.28;5029779;28;20543;-50
2022/08/17 03:24:56;;;;;;;10.95;7.25;;;;;;;20.79;64.65;99917.59;5028407;28;21686;-54
2022/08/17 03:27:21;;;;;;;11.63;8.00;;;;;;;20.53;64.58;99867.47;5030059;28;20054;-53
2022/08/17 03:29:47;;;;;;;12.57;8.40;;;;;;;20.80;64.53;99914.84;5020408;28;20048;-54
2022/08/17 03:32:14;;;;;;;13.80;8.00;;;;;;;20.79;64.40;99901.72;5029705;28;20044;-57
2022/08/17 03:34:41;;;;;;;11.18;7.82;;;;;;;20.85;64.34;99906.56;5017271;28;20517;-55
2022/08/17 03:37:07;;;;;;;11.23;7.65;;;;;;;20.88;64.14;99911.66;5029456;28;20057;-54
2022/08/17 03:39:33;;;;;;;23.70;8.80;;;;;;;20.96;64.07;99910.13;5029249;28;20128;-56
2022/08/17 03:42:07;;;;;;;10.27;7.28;;;;;;;21.02;63.66;99914.13;5029927;28;20095;-55
2022/08/17 03:44:32;;;;;;;16.58;8.13;;;;;;;20.99;63.46;99899.31;5029291;28;20056;-55
2022/08/17 03:57:57;;;;;;;14.48;6.85;;;;;;;21.22;62.60;99910.00;5022665;28;20048;-54
2022/08/17 04:00:23;;;;;;;12.65;7.45;;;;;;;21.26;62.48;99911.47;5028609;28;20033;-55
2022/08/17 04:02:51;;;;;;;10.05;6.82;;;;;;;21.27;62.41;99898.13;5027759;28;20095;-53
2022/08/17 04:05:17;;;;;;;9.23;6.95;;;;;;;21.30;62.05;99900.53;5022471;28;20783;-51
2022/08/17 04:07:43;;;;;;;11.25;7.30;;;;;;;21.34;62.02;99906.47;5032914;28;20045;-53
2022/08/17 04:10:08;;;;;;;10.20;7.05;;;;;;;21.37;61.82;99898.28;5032435;28;20068;-54
2022/08/17 04:12:49;;;;;;;10.27;6.55;;;;;;;21.39;61.57;99899.88;5032992;28;20033;-55
2022/08/17 04:15:15;;;;;;;12.85;6.63;;;;;;;21.41;61.49;99899.72;5020849;28;20049;-54
2022/08/17 04:17:43;;;;;;;11.00;6.38;;;;;;;21.50;61.13;99907.00;5031114;28;20041;-53
2022/08/17 04:20:14;;;;;;;8.05;6.05;;;;;;;21.36;61.00;99876.28;5022940;28;20402;-55
2022/08/17 04:23:03;;;;;;;12.90;6.30;;;;;;;21.57;60.87;99897.59;5032801;28;20045;-56
2022/08/17 04:25:31;;;;;;;9.38;5.70;;;;;;;21.45;60.68;99872.13;5024944;28;20133;-54
2022/08/17 04:27:57;;;;;;;13.25;6.88;;;;;;;21.66;60.54;99902.22;5032511;28;20064;-55
2022/08/17 04:30:24;;;;;;;7.68;5.82;;;;;;;21.68;60.55;99904.72;5031245;28;20056;-54
2022/08/17 04:32:56;;;;;;;10.40;6.28;;;;;;;21.73;60.40;99902.56;5032854;28;20425;-53
2022/08/17 04:35:24;;;;;;;11.40;8.00;;;;;;;21.80;60.19;99909.09;5023163;28;20045;-56
2022/08/17 04:37:50;;;;;;;10.77;6.85;;;;;;;21.71;60.08;99875.41;5032475;28;20493;-54
2022/08/17 04:43:13;;;;;;;11.95;6.75;;;;;;;21.91;59.91;99907.31;5012629;28;20053;-54
2022/08/17 04:45:41;;;;;;;10.40;6.53;;;;;;;21.93;59.63;99901.88;5053336;28;20034;-54
2022/08/17 04:48:07;;;;;;;15.18;7.18;;;;;;;22.00;59.48;99903.13;4995072;28;20049;-56
2022/08/17 04:50:34;;;;;;;10.60;6.55;;;;;;;21.72;59.48;99843.50;5026901;28;20041;-55
2022/08/17 04:53:00;;;;;;;31.25;7.97;;;;;;;22.10;59.36;99898.78;5032089;28;20067;-54
2022/08/17 04:55:27;;;;;;;9.95;7.20;;;;;;;22.12;59.05;99896.88;5030355;28;20817;-53
2022/08/17 04:57:53;;;;;;;10.60;7.00;;;;;;;22.22;58.75;99894.34;5031771;28;20029;-54
2022/08/17 05:00:19;;;;;;;11.27;6.65;;;;;;;22.28;58.72;99893.88;5032222;28;20065;-53
2022/08/17 05:02:49;;;;;;;13.30;6.80;;;;;;;22.31;58.70;99897.09;5030231;28;20519;-54
2022/08/17 05:05:30;;;;;;;11.02;6.47;;;;;;;22.40;58.64;99892.88;5023720;28;20039;-55
2022/08/17 05:08:00;;;;;;;15.30;6.78;;;;;;;22.33;58.20;99871.34;5032164;28;20476;-57
2022/08/17 05:10:28;;;;;;;10.82;6.80;;;;;;;22.53;57.77;99890.94;5031681;28;20049;-53
2022/08/17 05:12:58;;;;;;;14.20;6.53;;;;;;;22.65;57.45;99894.41;5030049;28;20518;-56
2022/08/17 05:15:24;;;;;;;15.35;6.63;;;;;;;22.74;57.16;99891.88;5025561;28;20075;-55
2022/08/17 05:17:50;;;;;;;9.75;6.28;;;;;;;22.84;56.81;99891.13;5019504;28;20053;-54
2022/08/17 05:20:16;;;;;;;9.13;6.32;;;;;;;22.91;56.54;99887.88;5024390;28;20033;-55
2022/08/17 05:22:54;;;;;;;9.00;6.00;;;;;;;23.00;56.42;99878.28;5029557;28;20045;-55
2022/08/17 05:25:27;;;;;;;13.35;6.95;;;;;;;23.09;56.27;99882.84;5030433;28;20422;-54
2022/08/17 05:27:53;;;;;;;13.07;7.55;;;;;;;23.18;56.18;99874.97;5020682;28;20045;-55
2022/08/17 05:30:20;;;;;;;11.82;6.90;;;;;;;23.31;55.70;99885.38;5015142;28;20041;-56
2022/08/17 05:33:00;;;;;;;12.55;6.57;;;;;;;23.41;55.39;99873.03;5031345;28;20060;-53
2022/08/17 05:35:28;;;;;;;11.85;6.43;;;;;;;23.51;55.21;99873.13;5029600;28;20041;-57
2022/08/17 05:37:54;;;;;;;9.00;6.10;;;;;;;23.62;54.89;99875.69;5029930;28;20051;-58
2022/08/17 05:40:21;;;;;;;10.55;6.60;;;;;;;23.49;54.51;99830.81;5029866;28;20048;-56
2022/08/17 05:42:48;;;;;;;10.80;6.60;;;;;;;23.60;54.06;99836.00;5038504;28;20084;-54
2022/08/17 05:45:16;;;;;;;9.45;6.88;;;;;;;23.95;53.76;99867.50;5030350;28;20034;-57
2022/08/17 05:47:43;;;;;;;12.00;6.97;;;;;;;24.06;53.46;99872.72;5038894;28;20124;-55
2022/08/17 05:50:15;;;;;;;11.40;7.43;;;;;;;24.19;53.32;99872.50;5021765;28;20496;-55
2022/08/17 05:52:49;;;;;;;9.48;5.43;;;;;;;24.34;52.84;99870.31;5026668;28;20037;-54
2022/08/17 05:55:31;;;;;;;17.30;6.75;;;;;;;24.44;52.47;99869.38;5011439;28;20049;-55
2022/08/17 05:58:22;;;;;;;12.15;6.55;;;;;;;24.52;52.02;99863.38;5009899;28;20125;-54
2022/08/17 06:00:55;;;;;;;13.13;6.70;;;;;;;24.60;51.67;99873.34;5021028;28;20482;-54
2022/08/17 06:04:13;;;;;;;11.98;6.15;;;;;;;24.70;51.64;99868.88;5030582;28;20113;-54
2022/08/17 06:06:43;;;;;;;16.23;6.35;;;;;;;24.87;51.12;99871.72;5009255;28;20433;-56
2022/08/17 06:09:38;;;;;;;10.98;5.97;;;;;;;24.83;50.57;99821.56;5027919;28;20048;-54
2022/08/17 06:12:27;;;;;;;11.85;6.45;;;;;;;25.32;50.15;99871.16;5036343;28;20041;-56
2022/08/17 06:15:11;;;;;;;;;;;;;;;25.47;49.85;99866.22;5009738;28;20124;-54
2022/08/17 06:17:37;;;;;;;15.38;6.72;;;;;;;25.59;49.68;99868.59;5028922;28;19917;-55
2022/08/17 06:20:08;;;;;;;8.10;6.25;;;;;;;25.87;48.95;99871.31;5028714;28;20037;-56
2022/08/17 06:22:39;;;;;;;10.13;5.82;;;;;;;26.37;47.81;99869.19;5012859;28;20052;-57
2022/08/17 06:25:17;;;;;;;7.72;5.35;;;;;;;27.12;46.18;99873.31;5028818;28;20042;-55
2022/08/17 06:27:48;;;;;;;12.25;5.75;;;;;;;28.01;44.15;99868.63;5025219;28;20056;-59
2022/08/17 06:30:20;;;;;;;10.73;5.55;;;;;;;28.73;42.56;99841.34;5018532;28;20429;-60
2022/08/17 06:32:49;;;;;;;10.27;5.40;;;;;;;29.85;41.15;99869.09;5024394;28;20219;-59
2022/08/17 06:35:18;;;;;;;14.82;5.55;;;;;;;30.72;39.72;99880.72;5020120;28;20049;-59
2022/08/17 06:37:53;;;;;;;10.75;5.20;;;;;;;31.52;38.20;99879.25;4994765;28;20160;-59
2022/08/17 06:40:49;;;;;;;14.40;5.97;;;;;;;32.42;36.01;99878.31;5010468;28;20045;-59
2022/08/17 06:43:22;;;;;;;9.80;5.28;;;;;;;33.17;35.06;99851.81;5010286;28;20045;-58
2022/08/17 06:46:00;;;;;;;10.85;5.93;;;;;;;34.10;33.58;99870.34;5019039;28;20484;-59
2022/08/17 06:48:58;;;;;;;14.73;5.90;;;;;;;35.02;31.83;99867.16;5030045;28;20042;-59
2022/08/17 06:51:30;;;;;;;;;;;;;;;35.81;31.38;99873.44;5027778;28;20053;-59
2022/08/17 06:54:04;;;;;;;14.30;6.45;;;;;;;36.29;29.64;99873.94;5050574;28;19927;-58
2022/08/17 06:56:39;;;;;;;13.77;5.72;;;;;;;36.82;29.11;99871.84;5027208;28;20045;-59
2022/08/17 06:59:06;;;;;;;10.48;5.68;;;;;;;37.10;28.25;99870.66;5028265;28;20397;-59
2022/08/17 07:01:33;;;;;;;11.03;5.77;;;;;;;37.77;27.03;99869.88;5049362;28;20072;-60
2022/08/17 07:04:15;;;;;;;9.07;5.88;;;;;;;38.37;26.01;99867.31;5023989;28;20258;-58
2022/08/17 07:06:49;;;;;;;9.18;5.03;;;;;;;38.88;25.25;99866.84;5023854;28;20041;-58
2022/08/17 07:09:28;;;;;;;7.55;5.28;;;;;;;39.75;24.26;99870.66;5025866;28;20048;-58
2022/08/17 07:11:59;;;;;;;7.03;5.60;;;;;;;40.43;23.38;99862.63;5021103;28;20080;-58
2022/08/17 07:14:35;;;;;;;9.57;5.80;;;;;;;40.95;23.04;99871.56;5021389;28;20041;-57
2022/08/17 07:17:10;;;;;;;6.97;5.22;;;;;;;41.27;22.63;99854.66;5022925;28;20044;-56
2022/08/17 07:19:40;;;;;;;6.75;4.63;;;;;;;41.83;22.20;99840.75;5021049;28;20046;-53
2022/08/17 07:22:33;;;;;;;8.15;5.25;;;;;;;42.37;21.38;99860.09;5027265;28;20599;-54
2022/08/17 07:25:08;;;;;;;9.13;4.85;;;;;;;42.76;20.46;99855.34;5025917;28;20125;-53
2022/08/17 07:27:41;;;;;;;10.52;5.10;;;;;;;42.77;19.97;99824.13;5023663;28;20072;-55
2022/08/17 07:30:23;;;;;;;7.32;4.93;;;;;;;43.27;19.82;99853.06;5026064;28;20040;-53
2022/08/17 07:33:07;;;;;;;9.85;6.40;;;;;;;43.20;19.21;99857.94;5027902;28;20592;-53
2022/08/17 07:35:38;;;;;;;9.20;5.00;;;;;;;43.25;19.15;99847.00;5020396;28;20045;-51
2022/08/17 07:38:23;;;;;;;9.38;5.70;;;;;;;43.81;18.81;99854.53;5022378;28;20575;-53
2022/08/17 07:41:00;;;;;;;12.52;5.60;;;;;;;44.76;18.05;99840.66;5030181;28;20574;-57
2022/08/17 07:43:39;;;;;;;13.77;5.80;;;;;;;45.29;17.60;99837.38;5029957;28;20595;-45
2022/08/17 07:48:55;;;;;;;10.05;5.38;;;;;;;45.44;16.49;99844.81;5029460;28;20052;-47
2022/08/17 07:51:28;;;;;;;6.43;4.68;;;;;;;45.62;16.02;99832.41;5026947;28;20087;-47
2022/08/17 07:53:58;;;;;;;27.95;7.85;;;;;;;45.76;15.66;99827.97;5026519;28;20037;-46
2022/08/17 07:56:46;;;;;;;39.55;9.93;;;;;;;45.96;15.59;99836.97;5060842;28;20053;-44
2022/08/17 07:59:16;;;;;;;15.63;5.05;;;;;;;45.39;15.33;99836.53;5051413;28;20049;-44
2022/08/17 08:02:06;;;;;;;12.32;5.30;;;;;;;44.96;15.49;99832.44;5028001;28;20084;-44
2022/08/17 08:04:39;;;;;;;6.63;4.45;;;;;;;44.23;15.97;99829.00;5021524;28;20071;-46
2022/08/17 08:07:10;;;;;;;10.38;4.25;;;;;;;44.17;15.90;99830.88;5027699;28;20041;-46
2022/08/17 08:09:40;;;;;;;8.95;4.30;;;;;;;44.29;15.81;99827.91;5030412;28;20160;-46
2022/08/17 08:12:28;;;;;;;6.90;4.88;;;;;;;44.85;15.96;99830.78;5026648;28;20072;-44
2022/08/17 08:15:17;;;;;;;9.60;4.57;;;;;;;44.16;15.99;99831.97;5022742;28;20033;-44
2022/08/17 08:18:01;;;;;;;4.72;4.20;;;;;;;43.86;16.32;99842.78;5023216;28;20437;-42
2022/08/17 08:20:39;;;;;;;7.53;4.50;;;;;;;43.22;16.60;99829.22;5044216;28;20090;-47
2022/08/17 08:23:14;;;;;;;6.32;4.30;;;;;;;43.70;16.40;99824.63;5030321;28;20045;-46
2022/08/17 08:25:40;;;;;;;7.95;5.40;;;;;;;44.42;16.32;99823.84;5020145;28;20041;-46
2022/08/17 08:28:18;;;;;;;7.28;4.82;;;;;;;44.95;15.79;99825.31;5022532;28;21611;-47
2022/08/17 08:30:48;;;;;;;8.40;4.35;;;;;;;45.17;15.58;99825.88;5028271;28;20065;-47
2022/08/17 08:33:26;;;;;;;9.15;4.90;;;;;;;44.89;15.51;99821.75;5026776;28;20040;-43
2022/08/17 08:36:11;;;;;;;4.97;4.28;;;;;;;44.78;15.56;99787.16;5025000;28;20048;-44
2022/08/17 08:39:00;;;;;;;5.60;4.80;;;;;;;45.33;15.54;99818.44;5028362;28;20095;-45
2022/08/17 08:41:49;;;;;;;7.07;4.90;;;;;;;45.77;15.20;99813.94;5025982;28;20041;-43
2022/08/17 08:44:47;;;;;;;9.05;4.90;;;;;;;46.26;14.58;99811.31;5027441;28;20048;-45
2022/08/17 08:47:19;;;;;;;18.38;6.30;;;;;;;46.46;14.64;99815.03;5025161;28;20111;-44
2022/08/17 08:50:08;;;;;;;7.32;4.78;;;;;;;46.55;14.54;99816.09;5031349;28;20135;-43
2022/08/17 08:53:00;;;;;;;8.32;4.93;;;;;;;45.34;14.86;99806.34;5026863;28;20041;-45
2022/08/17 08:55:41;;;;;;;7.47;5.00;;;;;;;44.61;15.51;99814.00;5020252;28;20049;-44
2022/08/17 08:58:12;;;;;;;10.82;5.28;;;;;;;44.63;15.80;99803.59;5031480;28;20053;-45
2022/08/17 09:00:42;;;;;;;7.60;5.05;;;;;;;45.50;15.29;99806.06;5029974;28;20095;-44
2022/08/17 09:03:21;;;;;;;9.65;5.75;;;;;;;46.34;15.09;99804.38;5058105;28;20100;-45
2022/08/17 09:06:16;;;;;;;9.00;5.60;;;;;;;46.84;14.21;99813.41;5022917;28;20037;-46
2022/08/17 09:09:06;;;;;;;5.95;4.82;;;;;;;46.98;13.81;99806.16;5017335;28;20049;-46
2022/08/17 09:11:44;;;;;;;9.60;5.45;;;;;;;47.01;14.05;99795.38;5054867;28;20037;-43
2022/08/17 09:14:39;;;;;;;8.50;6.07;;;;;;;47.41;13.84;99804.38;5028665;28;20083;-46
2022/08/17 09:17:16;;;;;;;5.82;4.88;;;;;;;46.60;13.75;99792.13;5027008;28;20041;-43
2022/08/17 09:19:47;;;;;;;10.05;5.28;;;;;;;46.17;14.28;99792.91;5061120;28;20033;-44
2022/08/17 09:22:19;;;;;;;8.63;5.18;;;;;;;46.12;14.03;99790.97;5027752;28;20041;-46
2022/08/17 09:24:53;;;;;;;10.07;5.90;;;;;;;46.35;14.02;99793.09;5039776;28;20045;-46
2022/08/17 09:27:21;;;;;;;9.32;5.35;;;;;;;46.87;13.69;99797.13;5029675;28;20107;-46
2022/08/17 09:29:56;;;;;;;10.75;5.15;;;;;;;47.44;13.71;99796.34;5028662;28;20068;-45
2022/08/17 09:32:48;;;;;;;11.15;5.50;;;;;;;47.83;13.40;99793.44;5027513;28;20040;-45
2022/08/17 09:35:22;;;;;;;10.30;5.55;;;;;;;48.28;13.03;99802.22;5013340;28;20052;-45
2022/08/17 09:38:06;;;;;;;10.13;5.22;;;;;;;48.25;12.77;99792.59;5015245;28;20485;-43
2022/08/17 09:40:45;;;;;;;7.38;5.03;;;;;;;47.97;13.24;99774.22;5021573;28;20528;-44
2022/08/17 09:43:26;;;;;;;8.05;5.50;;;;;;;48.17;13.00;99792.44;5028863;28;20048;-46
2022/08/17 09:45:57;;;;;;;11.00;5.80;;;;;;;47.35;13.67;99789.84;5028690;28;20513;-43
2022/08/17 09:48:35;;;;;;;8.68;5.50;;;;;;;47.73;13.67;99778.97;5030581;28;20359;-46
2022/08/17 09:51:09;;;;;;;10.07;5.43;;;;;;;48.00;13.25;99781.91;5007568;28;20419;-45
2022/08/17 09:53:36;;;;;;;9.05;5.50;;;;;;;48.12;13.15;99782.31;5024705;28;20052;-44
2022/08/17 09:56:24;;;;;;;6.45;5.80;;;;;;;47.84;13.23;99780.47;5023535;28;20879;-45
2022/08/17 09:59:15;;;;;;;8.43;5.80;;;;;;;46.68;13.72;99771.41;5027542;28;20044;-45
2022/08/17 10:01:50;;;;;;;8.55;6.68;;;;;;;47.28;13.80;99778.31;5006734;28;20128;-45
2022/08/17 10:04:28;;;;;;;6.60;5.60;;;;;;;47.85;13.22;99777.41;4996047;28;20088;-44
2022/08/17 10:07:14;;;;;;;9.88;7.53;;;;;;;48.18;13.07;99766.50;5028785;28;20033;-45
2022/08/17 10:09:56;;;;;;;7.28;5.97;;;;;;;48.49;12.90;99775.16;5030286;28;20119;-45
2022/08/17 10:12:50;;;;;;;8.68;5.75;;;;;;;48.63;12.72;99767.78;5013208;28;20079;-45
2022/08/17 10:15:23;;;;;;;13.88;6.70;;;;;;;48.90;12.92;99775.31;4993911;28;20149;-45
2022/08/17 10:18:02;;;;;;;10.25;6.05;;;;;;;48.90;12.50;99778.91;5028858;28;20041;-44
2022/08/17 10:20:29;;;;;;;11.30;5.97;;;;;;;48.53;12.60;99773.44;5033748;28;20043;-44
2022/08/17 10:26:20;;;;;;;9.32;5.88;;;;;;;48.34;13.20;99765.16;5029990;28;20048;-44
2022/08/17 10:28:54;;;;;;;11.63;6.13;;;;;;;48.27;13.04;99770.22;5028891;28;20140;-41
2022/08/17 10:31:29;;;;;;;9.75;5.70;;;;;;;48.45;12.85;99761.16;5026604;28;20589;-43
2022/08/17 10:34:17;;;;;;;8.18;5.85;;;;;;;48.54;12.76;99767.63;5025460;28;20080;-44
2022/08/17 10:37:23;;;;;;;11.50;5.70;;;;;;;48.65;12.82;99763.56;5027385;28;20569;-45
2022/08/17 10:40:09;;;;;;;9.73;5.57;;;;;;;48.80;12.52;99757.00;5020450;28;20045;-43
2022/08/17 10:42:45;;;;;;;6.22;5.68;;;;;;;48.43;12.64;99733.03;5024936;28;20040;-43
2022/08/17 10:45:28;;;;;;;7.78;5.72;;;;;;;48.58;12.48;99765.88;5042330;28;20037;-43
2022/08/17 10:48:05;;;;;;;8.25;5.38;;;;;;;48.51;12.52;99764.66;5027289;28;20115;-43
2022/08/17 10:50:59;;;;;;;9.23;6.07;;;;;;;48.59;12.37;99755.66;5024152;28;20060;-45
2022/08/17 10:53:31;;;;;;;11.63;6.00;;;;;;;48.46;12.61;99756.44;5023646;28;20048;-45
2022/08/17 10:56:12;;;;;;;7.22;5.90;;;;;;;48.72;12.22;99755.75;5026442;28;20099;-45
2022/08/17 10:58:52;;;;;;;7.75;6.18;;;;;;;48.99;12.22;99757.78;5023961;28;20041;-45
2022/08/17 11:01:26;;;;;;;9.10;5.85;;;;;;;48.90;12.34;99764.28;5023652;28;20107;-45
2022/08/17 11:03:55;;;;;;;7.15;6.45;;;;;;;48.73;12.34;99748.31;5024586;28;20041;-46
2022/08/17 11:06:31;;;;;;;8.18;6.18;;;;;;;48.91;12.50;99747.41;5022186;28;20046;-48
2022/08/17 11:09:00;;;;;;;11.63;6.78;;;;;;;49.12;12.37;99737.66;5023642;28;20201;-43
2022/08/17 11:11:48;;;;;;;7.40;6.70;;;;;;;48.83;12.26;99739.84;5026675;28;20087;-47
2022/08/17 11:14:24;;;;;;;7.38;6.50;;;;;;;48.72;12.35;99733.66;5031052;28;20163;-41
2022/08/17 11:17:24;;;;;;;8.20;7.40;;;;;;;48.42;12.48;99722.31;5038340;28;20038;-41
2022/08/17 11:20:08;;;;;;;7.47;6.47;;;;;;;48.74;12.09;99734.16;5024780;28;20037;-45
2022/08/17 11:23:01;;;;;;;10.68;6.95;;;;;;;48.77;12.40;99727.25;5024757;28;20052;-47
2022/08/17 11:25:40;;;;;;;10.70;7.10;;;;;;;48.93;12.22;99727.78;5031675;28;20065;-44
2022/08/17 11:28:14;;;;;;;8.23;6.65;;;;;;;49.23;11.99;99727.22;5030377;28;20053;-44
2022/08/17 11:30:46;;;;;;;10.45;7.60;;;;;;;49.33;12.01;99737.25;5033129;28;20037;-44
2022/08/17 11:33:27;;;;;;;9.00;7.30;;;;;;;49.19;11.92;99729.78;5026186;28;20041;-42
2022/08/17 11:36:11;;;;;;;8.40;7.47;;;;;;;49.10;12.08;99728.03;5032099;28;20033;-47
2022/08/17 11:39:06;;;;;;;9.43;7.43;;;;;;;49.07;12.18;99734.97;5016091;28;20048;-45
2022/08/17 11:41:48;;;;;;;9.48;8.20;;;;;;;49.16;12.29;99730.38;5022643;28;20053;-45
2022/08/17 11:44:26;;;;;;;9.05;8.13;;;;;;;49.30;11.98;99724.88;5052368;28;20084;-45
2022/08/17 11:53:03;;;;;;;10.82;8.43;;;;;;;49.40;11.91;99719.13;5031149;28;20057;-48
2022/08/17 11:55:33;;;;;;;10.38;9.35;;;;;;;49.47;11.77;99716.78;5044789;28;20068;-49
2022/08/17 11:58:19;;;;;;;9.23;8.40;;;;;;;49.49;11.90;99708.19;5025649;28;20817;-45
2022/08/17 12:00:50;;;;;;;9.70;8.77;;;;;;;49.62;11.74;99710.94;5030095;28;20120;-49
2022/08/17 12:03:27;;;;;;;9.82;8.80;;;;;;;49.22;11.96;99706.22;5031637;28;20041;-43
2022/08/17 12:06:02;;;;;;;10.50;8.48;;;;;;;48.62;12.22;99699.88;5029515;28;20037;-47
2022/08/17 12:08:32;;;;;;;10.45;8.40;;;;;;;48.58;12.18;99696.88;5028915;28;20041;-47
2022/08/17 12:11:10;;;;;;;12.25;8.10;;;;;;;48.68;12.03;99695.91;5030782;28;20052;-47
2022/08/17 12:13:51;;;;;;;9.60;8.32;;;;;;;48.38;12.35;99700.81;5027670;28;20041;-44
2022/08/17 12:16:19;;;;;;;9.52;8.10;;;;;;;48.26;12.93;99697.66;5052799;28;20091;-43
2022/08/17 12:18:58;;;;;;;8.65;7.85;;;;;;;48.38;12.25;99689.78;5030990;28;20052;-44
2022/08/17 12:21:42;;;;;;;9.40;7.65;;;;;;;48.52;12.57;99684.31;5027536;28;20124;-43
2022/08/17 12:24:07;;;;;;;9.82;8.02;;;;;;;48.49;12.43;99682.13;5030096;28;20056;-43
2022/08/17 12:26:35;;;;;;;11.90;7.93;;;;;;;48.44;12.25;99692.44;5024708;28;20449;-45